sensor_id;sensor_type;location;lat;lon;timestamp;pressure;altitude;pressure_sealevel;temperature;humidity
66945;BME280;53853;51.982;5.928;2023-05-10T00:01:25;100734.47;;;14.70;88.27
66945;BME280;53853;51.982;5.928;2023-05-10T00:03:55;100731.59;;;14.71;88.10
66945;BME280;53853;51.982;5.928;2023-05-10T00:06:25;100728.28;;;14.69;88.41
66945;BME280;53853;51.982;5.928;2023-05-10T00:08:55;100730.59;;;14.72;88.23
66945;BME280;53853;51.982;5.928;2023-05-10T00:11:28;100728.56;;;14.74;88.35
66945;BME280;53853;51.982;5.928;2023-05-10T00:13:57;100726.06;;;14.73;88.25
66945;BME280;53853;51.982;5.928;2023-05-10T00:16:27;100733.28;;;14.72;88.08
66945;BME280;53853;51.982;5.928;2023-05-10T00:18:57;100737.63;;;14.73;87.97
66945;BME280;53853;51.982;5.928;2023-05-10T00:21:27;100730.59;;;14.72;87.85
66945;BME280;53853;51.982;5.928;2023-05-10T00:23:57;100725.06;;;14.74;87.65
66945;BME280;53853;51.982;5.928;2023-05-10T00:26:29;100724.69;;;14.77;88.06
66945;BME280;53853;51.982;5.928;2023-05-10T00:28:59;100727.84;;;14.80;87.68
66945;BME280;53853;51.982;5.928;2023-05-10T00:31:29;100722.84;;;14.77;87.53
66945;BME280;53853;51.982;5.928;2023-05-10T00:33:58;100721.84;;;14.78;87.94
66945;BME280;53853;51.982;5.928;2023-05-10T00:36:28;100726.16;;;14.79;87.93
66945;BME280;53853;51.982;5.928;2023-05-10T00:38:58;100719.81;;;14.80;87.94
66945;BME280;53853;51.982;5.928;2023-05-10T00:41:32;100715.25;;;14.81;87.81
66945;BME280;53853;51.982;5.928;2023-05-10T00:44:04;100722.31;;;14.82;87.90
66945;BME280;53853;51.982;5.928;2023-05-10T00:46:35;100727.66;;;14.82;87.77
66945;BME280;53853;51.982;5.928;2023-05-10T00:49:04;100723.47;;;14.79;87.95
66945;BME280;53853;51.982;5.928;2023-05-10T00:51:35;100719.81;;;14.80;88.17
66945;BME280;53853;51.982;5.928;2023-05-10T00:54:06;100712.41;;;14.82;88.41
66945;BME280;53853;51.982;5.928;2023-05-10T00:56:38;100720.25;;;14.84;88.22
66945;BME280;53853;51.982;5.928;2023-05-10T00:59:09;100716.56;;;14.85;88.17
66945;BME280;53853;51.982;5.928;2023-05-10T01:01:39;100711.03;;;14.87;88.09
66945;BME280;53853;51.982;5.928;2023-05-10T01:04:09;100715.19;;;14.89;87.71
66945;BME280;53853;51.982;5.928;2023-05-10T01:06:40;100711.66;;;14.89;87.75
66945;BME280;53853;51.982;5.928;2023-05-10T01:09:10;100717.03;;;14.89;88.13
66945;BME280;53853;51.982;5.928;2023-05-10T01:11:43;100715.00;;;14.91;88.21
66945;BME280;53853;51.982;5.928;2023-05-10T01:14:13;100709.81;;;14.89;87.93
66945;BME280;53853;51.982;5.928;2023-05-10T01:16:45;100710.00;;;14.88;88.25
66945;BME280;53853;51.982;5.928;2023-05-10T01:19:19;100711.66;;;14.89;88.29
66945;BME280;53853;51.982;5.928;2023-05-10T01:21:53;100714.72;;;14.85;87.90
66945;BME280;53853;51.982;5.928;2023-05-10T01:25:03;100706.03;;;14.83;87.97
66945;BME280;53853;51.982;5.928;2023-05-10T01:28:12;100710.75;;;14.81;88.09
66945;BME280;53853;51.982;5.928;2023-05-10T01:33:48;100718.91;;;14.88;88.28
66945;BME280;53853;51.982;5.928;2023-05-10T01:36:26;100722.41;;;14.89;88.21
66945;BME280;53853;51.982;5.928;2023-05-10T01:39:01;100722.59;;;14.87;87.99
66945;BME280;53853;51.982;5.928;2023-05-10T01:41:41;100720.72;;;14.88;88.04
66945;BME280;53853;51.982;5.928;2023-05-10T01:44:20;100723.41;;;14.88;88.14
66945;BME280;53853;51.982;5.928;2023-05-10T01:46:58;100716.41;;;14.87;87.94
66945;BME280;53853;51.982;5.928;2023-05-10T01:49:39;100723.22;;;14.89;88.04
66945;BME280;53853;51.982;5.928;2023-05-10T01:52:12;100711.66;;;14.89;88.12
66945;BME280;53853;51.982;5.928;2023-05-10T01:54:52;100712.03;;;14.85;87.81
66945;BME280;53853;51.982;5.928;2023-05-10T01:57:25;100719.72;;;14.89;88.30
66945;BME280;53853;51.982;5.928;2023-05-10T01:59:55;100724.09;;;14.90;88.41
66945;BME280;53853;51.982;5.928;2023-05-10T02:02:27;100716.84;;;14.90;88.14
66945;BME280;53853;51.982;5.928;2023-05-10T02:05:00;100719.53;;;14.90;88.08
66945;BME280;53853;51.982;5.928;2023-05-10T02:07:32;100715.00;;;14.91;88.23
66945;BME280;53853;51.982;5.928;2023-05-10T02:10:06;100717.03;;;14.89;87.51
66945;BME280;53853;51.982;5.928;2023-05-10T02:12:39;100721.13;;;14.84;87.72
66945;BME280;53853;51.982;5.928;2023-05-10T02:15:12;100724.63;;;14.85;87.87
66945;BME280;53853;51.982;5.928;2023-05-10T02:17:46;100722.94;;;14.84;87.75
66945;BME280;53853;51.982;5.928;2023-05-10T02:20:19;100721.47;;;14.81;87.69
66945;BME280;53853;51.982;5.928;2023-05-10T02:22:50;100718.78;;;14.81;87.99
66945;BME280;53853;51.982;5.928;2023-05-10T02:25:22;100732.03;;;14.83;87.80
66945;BME280;53853;51.982;5.928;2023-05-10T02:27:55;100731.84;;;14.84;88.15
66945;BME280;53853;51.982;5.928;2023-05-10T02:30:25;100736.81;;;14.88;88.34
66945;BME280;53853;51.982;5.928;2023-05-10T02:32:57;100741.19;;;14.89;88.21
66945;BME280;53853;51.982;5.928;2023-05-10T02:35:29;100735.19;;;14.87;88.06
66945;BME280;53853;51.982;5.928;2023-05-10T02:38:00;100742.19;;;14.88;88.03
66945;BME280;53853;51.982;5.928;2023-05-10T02:40:30;100739.31;;;14.89;88.31
66945;BME280;53853;51.982;5.928;2023-05-10T02:43:03;100741.84;;;14.91;88.27
66945;BME280;53853;51.982;5.928;2023-05-10T02:45:35;100742.50;;;14.93;88.26
66945;BME280;53853;51.982;5.928;2023-05-10T02:48:06;100741.00;;;14.90;87.97
66945;BME280;53853;51.982;5.928;2023-05-10T02:50:41;100742.69;;;14.91;87.60
66945;BME280;53853;51.982;5.928;2023-05-10T02:53:18;100744.69;;;14.89;87.36
66945;BME280;53853;51.982;5.928;2023-05-10T02:55:52;100751.63;;;14.83;87.33
66945;BME280;53853;51.982;5.928;2023-05-10T02:58:24;100748.13;;;14.83;87.19
66945;BME280;53853;51.982;5.928;2023-05-10T03:00:54;100749.13;;;14.82;86.83
66945;BME280;53853;51.982;5.928;2023-05-10T03:03:24;100741.44;;;14.79;86.69
66945;BME280;53853;51.982;5.928;2023-05-10T03:05:56;100746.16;;;14.77;86.84
66945;BME280;53853;51.982;5.928;2023-05-10T03:08:26;100748.16;;;14.75;86.88
66945;BME280;53853;51.982;5.928;2023-05-10T03:11:09;100744.66;;;14.74;86.88
66945;BME280;53853;51.982;5.928;2023-05-10T03:13:52;100750.19;;;14.73;87.04
66945;BME280;53853;51.982;5.928;2023-05-10T03:16:29;100755.38;;;14.74;87.18
66945;BME280;53853;51.982;5.928;2023-05-10T03:19:09;100758.91;;;14.75;87.09
66945;BME280;53853;51.982;5.928;2023-05-10T03:21:47;100751.38;;;14.70;86.77
66945;BME280;53853;51.982;5.928;2023-05-10T03:24:21;100757.09;;;14.67;86.73
66945;BME280;53853;51.982;5.928;2023-05-10T03:26:56;100762.47;;;14.67;86.39
66945;BME280;53853;51.982;5.928;2023-05-10T03:29:31;100755.16;;;14.61;86.60
66945;BME280;53853;51.982;5.928;2023-05-10T03:32:03;100766.84;;;14.68;86.92
66945;BME280;53853;51.982;5.928;2023-05-10T03:34:33;100764.16;;;14.68;87.29
66945;BME280;53853;51.982;5.928;2023-05-10T03:37:06;100765.81;;;14.69;87.08
66945;BME280;53853;51.982;5.928;2023-05-10T03:39:36;100771.84;;;14.71;87.16
66945;BME280;53853;51.982;5.928;2023-05-10T03:42:08;100764.97;;;14.68;86.88
66945;BME280;53853;51.982;5.928;2023-05-10T03:44:39;100770.34;;;14.68;86.93
66945;BME280;53853;51.982;5.928;2023-05-10T03:47:09;100762.13;;;14.70;87.03
66945;BME280;53853;51.982;5.928;2023-05-10T03:49:39;100762.69;;;14.65;85.31
66945;BME280;53853;51.982;5.928;2023-05-10T03:52:11;100768.91;;;14.58;84.65
66945;BME280;53853;51.982;5.928;2023-05-10T03:54:42;100777.13;;;14.56;85.50
66945;BME280;53853;51.982;5.928;2023-05-10T03:57:11;100787.00;;;14.56;85.49
66945;BME280;53853;51.982;5.928;2023-05-10T03:59:41;100780.31;;;14.52;85.08
66945;BME280;53853;51.982;5.928;2023-05-10T04:02:11;100783.00;;;14.52;85.01
66945;BME280;53853;51.982;5.928;2023-05-10T04:04:41;100791.22;;;14.50;85.59
66945;BME280;53853;51.982;5.928;2023-05-10T04:07:14;100787.50;;;14.51;85.66
66945;BME280;53853;51.982;5.928;2023-05-10T04:09:44;100791.06;;;14.52;85.65
66945;BME280;53853;51.982;5.928;2023-05-10T04:12:14;100791.06;;;14.52;85.68
66945;BME280;53853;51.982;5.928;2023-05-10T04:14:44;100788.19;;;14.53;85.91
66945;BME280;53853;51.982;5.928;2023-05-10T04:17:14;100787.84;;;14.56;86.22
66945;BME280;53853;51.982;5.928;2023-05-10T04:19:44;100788.66;;;14.57;85.99
66945;BME280;53853;51.982;5.928;2023-05-10T04:22:16;100788.19;;;14.53;85.30
66945;BME280;53853;51.982;5.928;2023-05-10T04:24:47;100788.53;;;14.50;85.11
66945;BME280;53853;51.982;5.928;2023-05-10T04:27:16;100789.38;;;14.50;85.05
66945;BME280;53853;51.982;5.928;2023-05-10T04:29:46;100790.19;;;14.51;85.52
66945;BME280;53853;51.982;5.928;2023-05-10T04:32:17;100793.91;;;14.50;85.14
66945;BME280;53853;51.982;5.928;2023-05-10T04:34:47;100796.94;;;14.47;84.39
66945;BME280;53853;51.982;5.928;2023-05-10T04:37:20;100802.47;;;14.45;84.71
66945;BME280;53853;51.982;5.928;2023-05-10T04:39:50;100787.56;;;14.43;84.63
66945;BME280;53853;51.982;5.928;2023-05-10T04:42:19;100795.97;;;14.40;84.35
66945;BME280;53853;51.982;5.928;2023-05-10T04:44:49;100802.84;;;14.42;84.87
66945;BME280;53853;51.982;5.928;2023-05-10T04:47:19;100796.66;;;14.42;84.96
66945;BME280;53853;51.982;5.928;2023-05-10T04:49:49;100798.28;;;14.43;85.21
66945;BME280;53853;51.982;5.928;2023-05-10T04:52:21;100807.84;;;14.45;85.32
66945;BME280;53853;51.982;5.928;2023-05-10T04:54:51;100803.13;;;14.47;85.70
66945;BME280;53853;51.982;5.928;2023-05-10T04:57:21;100804.63;;;14.50;85.97
66945;BME280;53853;51.982;5.928;2023-05-10T04:59:51;100801.78;;;14.52;85.77
66945;BME280;53853;51.982;5.928;2023-05-10T05:02:21;100802.59;;;14.52;85.09
66945;BME280;53853;51.982;5.928;2023-05-10T05:04:50;100800.94;;;14.51;85.55
66945;BME280;53853;51.982;5.928;2023-05-10T05:07:23;100801.78;;;14.52;85.45
66945;BME280;53853;51.982;5.928;2023-05-10T05:09:53;100805.75;;;14.56;86.08
66945;BME280;53853;51.982;5.928;2023-05-10T05:12:22;100806.44;;;14.58;86.09
66945;BME280;53853;51.982;5.928;2023-05-10T05:14:52;100804.75;;;14.57;85.91
66945;BME280;53853;51.982;5.928;2023-05-10T05:17:22;100809.94;;;14.58;85.93
66945;BME280;53853;51.982;5.928;2023-05-10T05:19:52;100818.50;;;14.62;86.16
66945;BME280;53853;51.982;5.928;2023-05-10T05:22:25;100814.00;;;14.62;86.14
66945;BME280;53853;51.982;5.928;2023-05-10T05:24:56;100816.31;;;14.65;86.13
66945;BME280;53853;51.982;5.928;2023-05-10T05:27:26;100811.59;;;14.67;86.11
66945;BME280;53853;51.982;5.928;2023-05-10T05:29:56;100817.63;;;14.70;85.90
66945;BME280;53853;51.982;5.928;2023-05-10T05:32:26;100815.41;;;14.73;86.39
66945;BME280;53853;51.982;5.928;2023-05-10T05:34:57;100821.44;;;14.75;85.43
66945;BME280;53853;51.982;5.928;2023-05-10T05:37:29;100821.28;;;14.77;85.65
66945;BME280;53853;51.982;5.928;2023-05-10T05:39:59;100822.56;;;14.81;85.94
66945;BME280;53853;51.982;5.928;2023-05-10T05:42:30;100822.84;;;14.86;85.85
66945;BME280;53853;51.982;5.928;2023-05-10T05:45:00;100825.00;;;14.91;86.17
66945;BME280;53853;51.982;5.928;2023-05-10T05:47:30;100825.50;;;14.94;85.85
66945;BME280;53853;51.982;5.928;2023-05-10T05:50:00;100822.28;;;14.99;85.62
66945;BME280;53853;51.982;5.928;2023-05-10T05:52:33;100827.59;;;15.07;86.12
66945;BME280;53853;51.982;5.928;2023-05-10T05:55:03;100826.03;;;15.13;85.18
66945;BME280;53853;51.982;5.928;2023-05-10T05:57:33;100828.16;;;15.17;83.72
66945;BME280;53853;51.982;5.928;2023-05-10T06:00:04;100826.63;;;15.23;84.23
66945;BME280;53853;51.982;5.928;2023-05-10T06:02:39;100832.47;;;15.27;84.62
66945;BME280;53853;51.982;5.928;2023-05-10T06:05:09;100830.41;;;15.29;83.77
66945;BME280;53853;51.982;5.928;2023-05-10T06:07:43;100836.28;;;15.32;84.20
66945;BME280;53853;51.982;5.928;2023-05-10T06:10:13;100840.44;;;15.35;83.64
66945;BME280;53853;51.982;5.928;2023-05-10T06:12:43;100843.47;;;15.32;83.17
66945;BME280;53853;51.982;5.928;2023-05-10T06:15:13;100836.09;;;15.34;83.43
66945;BME280;53853;51.982;5.928;2023-05-10T06:17:43;100836.75;;;15.36;83.58
66945;BME280;53853;51.982;5.928;2023-05-10T06:20:14;100841.28;;;15.35;83.19
66945;BME280;53853;51.982;5.928;2023-05-10T06:22:47;100844.16;;;15.34;83.32
66945;BME280;53853;51.982;5.928;2023-05-10T06:25:17;100847.66;;;15.34;83.69
66945;BME280;53853;51.982;5.928;2023-05-10T06:27:47;100847.66;;;15.34;84.10
66945;BME280;53853;51.982;5.928;2023-05-10T06:30:17;100848.66;;;15.33;84.34
66945;BME280;53853;51.982;5.928;2023-05-10T06:32:49;100860.28;;;15.34;84.29
66945;BME280;53853;51.982;5.928;2023-05-10T06:35:20;100858.22;;;15.36;84.39
66945;BME280;53853;51.982;5.928;2023-05-10T06:37:52;100858.88;;;15.38;84.36
66945;BME280;53853;51.982;5.928;2023-05-10T06:40:22;100860.91;;;15.36;84.16
66945;BME280;53853;51.982;5.928;2023-05-10T06:42:52;100865.28;;;15.37;84.28
66945;BME280;53853;51.982;5.928;2023-05-10T06:45:22;100864.59;;;15.35;83.96
66945;BME280;53853;51.982;5.928;2023-05-10T06:47:52;100864.59;;;15.35;84.11
66945;BME280;53853;51.982;5.928;2023-05-10T06:50:22;100873.00;;;15.32;83.78
66945;BME280;53853;51.982;5.928;2023-05-10T06:52:54;100872.19;;;15.31;84.21
66945;BME280;53853;51.982;5.928;2023-05-10T06:55:24;100868.69;;;15.31;83.98
66945;BME280;53853;51.982;5.928;2023-05-10T06:57:54;100876.75;;;15.31;84.17
66945;BME280;53853;51.982;5.928;2023-05-10T07:00:24;100877.38;;;15.33;84.51
66945;BME280;53853;51.982;5.928;2023-05-10T07:02:54;100879.25;;;15.32;83.46
66945;BME280;53853;51.982;5.928;2023-05-10T07:05:25;100877.09;;;15.28;83.54
66945;BME280;53853;51.982;5.928;2023-05-10T07:07:58;100881.25;;;15.30;84.06
66945;BME280;53853;51.982;5.928;2023-05-10T07:10:28;100882.47;;;15.28;83.60
66945;BME280;53853;51.982;5.928;2023-05-10T07:12:58;100888.19;;;15.25;83.03
66945;BME280;53853;51.982;5.928;2023-05-10T07:15:28;100884.47;;;15.26;83.27
66945;BME280;53853;51.982;5.928;2023-05-10T07:17:58;100889.84;;;15.26;82.94
66945;BME280;53853;51.982;5.928;2023-05-10T07:20:27;100889.31;;;15.30;83.46
66945;BME280;53853;51.982;5.928;2023-05-10T07:23:00;100888.13;;;15.33;82.56
66945;BME280;53853;51.982;5.928;2023-05-10T07:25:30;100891.09;;;15.38;83.40
66945;BME280;53853;51.982;5.928;2023-05-10T07:27:59;100903.16;;;15.42;83.63
66945;BME280;53853;51.982;5.928;2023-05-10T07:30:29;100894.75;;;15.45;83.34
66945;BME280;53853;51.982;5.928;2023-05-10T07:32:59;100897.72;;;15.50;83.42
66945;BME280;53853;51.982;5.928;2023-05-10T07:35:29;100903.38;;;15.55;83.92
66945;BME280;53853;51.982;5.928;2023-05-10T07:38:01;100898.50;;;15.59;83.45
66945;BME280;53853;51.982;5.928;2023-05-10T07:40:31;100900.44;;;15.65;84.12
66945;BME280;53853;51.982;5.928;2023-05-10T07:43:01;100910.44;;;15.71;83.80
66945;BME280;53853;51.982;5.928;2023-05-10T07:45:31;100912.44;;;15.78;84.26
66945;BME280;53853;51.982;5.928;2023-05-10T07:48:01;100911.72;;;15.84;82.71
66945;BME280;53853;51.982;5.928;2023-05-10T07:50:31;100915.22;;;15.84;80.96
66945;BME280;53853;51.982;5.928;2023-05-10T07:53:03;100907.47;;;15.89;82.20
66945;BME280;53853;51.982;5.928;2023-05-10T07:55:33;100922.47;;;15.99;82.37
66945;BME280;53853;51.982;5.928;2023-05-10T07:58:03;100919.72;;;16.07;82.25
66945;BME280;53853;51.982;5.928;2023-05-10T08:00:33;100917.78;;;16.16;82.75
66945;BME280;53853;51.982;5.928;2023-05-10T08:03:06;100918.72;;;16.23;82.91
66945;BME280;53853;51.982;5.928;2023-05-10T08:05:35;100923.91;;;16.24;81.62
66945;BME280;53853;51.982;5.928;2023-05-10T08:08:08;100917.03;;;16.22;79.24
66945;BME280;53853;51.982;5.928;2023-05-10T08:10:38;100927.69;;;16.30;80.30
66945;BME280;53853;51.982;5.928;2023-05-10T08:13:07;100931.69;;;16.49;81.75
66945;BME280;53853;51.982;5.928;2023-05-10T08:15:37;100932.50;;;16.64;81.18
66945;BME280;53853;51.982;5.928;2023-05-10T08:18:07;100925.63;;;16.77;80.99
66945;BME280;53853;51.982;5.928;2023-05-10T08:20:37;100925.81;;;16.90;81.89
66945;BME280;53853;51.982;5.928;2023-05-10T08:23:09;100929.69;;;17.02;81.66
66945;BME280;53853;51.982;5.928;2023-05-10T08:25:39;100938.00;;;17.08;79.28
66945;BME280;53853;51.982;5.928;2023-05-10T08:28:09;100935.00;;;17.17;80.13
66945;BME280;53853;51.982;5.928;2023-05-10T08:30:39;100938.44;;;17.26;79.18
66945;BME280;53853;51.982;5.928;2023-05-10T08:33:08;100938.94;;;17.36;79.81
66945;BME280;53853;51.982;5.928;2023-05-10T08:35:38;100937.91;;;17.37;79.38
66945;BME280;53853;51.982;5.928;2023-05-10T08:38:11;100943.69;;;17.34;79.07
66945;BME280;53853;51.982;5.928;2023-05-10T08:40:43;100945.22;;;17.22;76.28
66945;BME280;53853;51.982;5.928;2023-05-10T08:43:13;100957.22;;;17.19;76.88
66945;BME280;53853;51.982;5.928;2023-05-10T08:45:44;100960.84;;;17.12;76.56
66945;BME280;53853;51.982;5.928;2023-05-10T08:48:14;100958.19;;;16.97;76.15
66945;BME280;53853;51.982;5.928;2023-05-10T08:50:45;100965.25;;;16.83;74.41
66945;BME280;53853;51.982;5.928;2023-05-10T08:53:19;100972.78;;;16.73;74.39
66945;BME280;53853;51.982;5.928;2023-05-10T08:55:50;100972.88;;;16.64;73.81
66945;BME280;53853;51.982;5.928;2023-05-10T08:58:20;100979.75;;;16.67;74.92
66945;BME280;53853;51.982;5.928;2023-05-10T09:00:50;100983.97;;;16.76;75.81
66945;BME280;53853;51.982;5.928;2023-05-10T09:03:20;100987.28;;;16.87;75.71
66945;BME280;53853;51.982;5.928;2023-05-10T09:05:50;100983.25;;;16.97;75.48
66945;BME280;53853;51.982;5.928;2023-05-10T09:08:23;100992.91;;;17.07;75.23
66945;BME280;53853;51.982;5.928;2023-05-10T09:10:55;100986.47;;;17.08;73.27
66945;BME280;53853;51.982;5.928;2023-05-10T09:13:25;100991.94;;;17.14;73.24
66945;BME280;53853;51.982;5.928;2023-05-10T09:15:55;100984.78;;;17.22;73.23
66945;BME280;53853;51.982;5.928;2023-05-10T09:18:25;100985.03;;;17.27;69.64
66945;BME280;53853;51.982;5.928;2023-05-10T09:20:55;100995.97;;;17.40;72.35
66945;BME280;53853;51.982;5.928;2023-05-10T09:23:27;100993.03;;;17.56;70.86
66945;BME280;53853;51.982;5.928;2023-05-10T09:26:05;101008.88;;;17.66;70.51
66945;BME280;53853;51.982;5.928;2023-05-10T09:28:50;101011.81;;;17.71;69.56
66945;BME280;53853;51.982;5.928;2023-05-10T09:31:20;101008.22;;;17.64;69.61
66945;BME280;53853;51.982;5.928;2023-05-10T09:33:53;101014.81;;;17.62;70.12
66945;BME280;53853;51.982;5.928;2023-05-10T09:36:23;101021.13;;;17.69;71.32
66945;BME280;53853;51.982;5.928;2023-05-10T09:38:56;101025.75;;;17.75;67.66
66945;BME280;53853;51.982;5.928;2023-05-10T09:41:27;101024.91;;;17.74;69.26
66945;BME280;53853;51.982;5.928;2023-05-10T09:43:57;101022.09;;;17.83;70.18
66945;BME280;53853;51.982;5.928;2023-05-10T09:46:26;101026.34;;;17.92;70.97
66945;BME280;53853;51.982;5.928;2023-05-10T09:48:56;101026.63;;;17.97;69.91
66945;BME280;53853;51.982;5.928;2023-05-10T09:51:26;101031.44;;;18.02;70.17
66945;BME280;53853;51.982;5.928;2023-05-10T09:54:14;101033.06;;;18.03;67.52
66945;BME280;53853;51.982;5.928;2023-05-10T09:56:44;101026.81;;;17.96;66.93
66945;BME280;53853;51.982;5.928;2023-05-10T09:59:14;101036.31;;;17.91;66.32
66945;BME280;53853;51.982;5.928;2023-05-10T10:01:50;101041.25;;;17.88;64.19
66945;BME280;53853;51.982;5.928;2023-05-10T10:04:20;101037.81;;;17.79;63.88
66945;BME280;53853;51.982;5.928;2023-05-10T10:07:00;101042.75;;;17.75;65.37
66945;BME280;53853;51.982;5.928;2023-05-10T10:09:33;101036.97;;;17.79;67.93
66945;BME280;53853;51.982;5.928;2023-05-10T10:12:04;101049.63;;;17.78;67.07
66945;BME280;53853;51.982;5.928;2023-05-10T10:14:34;101043.00;;;17.81;66.79
66945;BME280;53853;51.982;5.928;2023-05-10T10:17:04;101041.28;;;17.73;66.75
66945;BME280;53853;51.982;5.928;2023-05-10T10:19:34;101051.66;;;17.76;67.54
66945;BME280;53853;51.982;5.928;2023-05-10T10:22:05;101046.94;;;17.78;68.09
66945;BME280;53853;51.982;5.928;2023-05-10T10:24:40;101055.66;;;17.80;69.53
66945;BME280;53853;51.982;5.928;2023-05-10T10:27:19;101056.88;;;17.78;66.54
66945;BME280;53853;51.982;5.928;2023-05-10T10:29:58;101052.44;;;17.70;65.98
66945;BME280;53853;51.982;5.928;2023-05-10T10:32:38;101046.78;;;17.65;66.66
66945;BME280;53853;51.982;5.928;2023-05-10T10:35:12;101052.00;;;17.66;67.11
66945;BME280;53853;51.982;5.928;2023-05-10T10:37:44;101052.19;;;17.65;66.65
66945;BME280;53853;51.982;5.928;2023-05-10T10:40:27;101049.69;;;17.63;67.86
66945;BME280;53853;51.982;5.928;2023-05-10T10:42:58;101050.53;;;17.64;69.11
66945;BME280;53853;51.982;5.928;2023-05-10T10:48:34;101044.06;;;17.80;69.93
66945;BME280;53853;51.982;5.928;2023-05-10T10:51:04;101053.50;;;17.90;68.04
66945;BME280;53853;51.982;5.928;2023-05-10T10:53:34;101050.94;;;18.04;69.60
66945;BME280;53853;51.982;5.928;2023-05-10T10:56:10;101043.53;;;18.13;67.84
66945;BME280;53853;51.982;5.928;2023-05-10T10:58:42;101039.03;;;18.20;66.26
66945;BME280;53853;51.982;5.928;2023-05-10T11:01:20;101055.25;;;18.26;68.09
66945;BME280;53853;51.982;5.928;2023-05-10T11:04:17;101052.75;;;18.25;62.66
66945;BME280;53853;51.982;5.928;2023-05-10T11:06:47;101054.97;;;18.15;64.51
66945;BME280;53853;51.982;5.928;2023-05-10T11:09:16;101056.38;;;18.10;65.95
66945;BME280;53853;51.982;5.928;2023-05-10T11:11:54;101055.16;;;18.13;66.38
66945;BME280;53853;51.982;5.928;2023-05-10T11:14:25;101053.94;;;18.16;67.00
66945;BME280;53853;51.982;5.928;2023-05-10T11:16:55;101053.53;;;18.19;66.14
66945;BME280;53853;51.982;5.928;2023-05-10T11:19:28;101062.56;;;18.33;66.42
66945;BME280;53853;51.982;5.928;2023-05-10T11:22:13;101056.41;;;18.39;64.47
66945;BME280;53853;51.982;5.928;2023-05-10T11:24:56;101057.72;;;18.50;63.47
66945;BME280;53853;51.982;5.928;2023-05-10T11:27:30;101057.97;;;18.55;63.23
66945;BME280;53853;51.982;5.928;2023-05-10T11:30:00;101068.84;;;18.68;62.99
66945;BME280;53853;51.982;5.928;2023-05-10T11:32:30;101063.25;;;18.70;62.34
66945;BME280;53853;51.982;5.928;2023-05-10T11:35:00;101059.78;;;18.82;63.48
66945;BME280;53853;51.982;5.928;2023-05-10T11:37:36;101064.09;;;18.98;64.15
66945;BME280;53853;51.982;5.928;2023-05-10T11:40:09;101068.94;;;19.16;65.43
66945;BME280;53853;51.982;5.928;2023-05-10T11:42:41;101070.44;;;19.26;62.65
66945;BME280;53853;51.982;5.928;2023-05-10T11:45:11;101067.97;;;19.37;63.62
66945;BME280;53853;51.982;5.928;2023-05-10T11:47:41;101066.75;;;19.47;63.51
66945;BME280;53853;51.982;5.928;2023-05-10T11:50:12;101069.69;;;19.52;61.87
66945;BME280;53853;51.982;5.928;2023-05-10T11:52:42;101067.19;;;19.50;61.87
66945;BME280;53853;51.982;5.928;2023-05-10T11:55:12;101073.47;;;19.58;62.69
66945;BME280;53853;51.982;5.928;2023-05-10T11:57:45;101066.38;;;19.57;60.02
66945;BME280;53853;51.982;5.928;2023-05-10T12:00:16;101063.06;;;19.68;60.91
66945;BME280;53853;51.982;5.928;2023-05-10T12:02:45;101068.72;;;19.73;63.20
66945;BME280;53853;51.982;5.928;2023-05-10T12:05:15;101061.84;;;19.70;62.38
66945;BME280;53853;51.982;5.928;2023-05-10T12:07:45;101069.34;;;19.75;60.86
66945;BME280;53853;51.982;5.928;2023-05-10T12:10:15;101070.38;;;19.74;61.56
66945;BME280;53853;51.982;5.928;2023-05-10T12:12:48;101073.97;;;19.81;61.36
66945;BME280;53853;51.982;5.928;2023-05-10T12:15:23;101067.91;;;19.79;58.91
66945;BME280;53853;51.982;5.928;2023-05-10T12:17:54;101077.28;;;19.77;59.83
66945;BME280;53853;51.982;5.928;2023-05-10T12:20:28;101076.41;;;19.76;60.19
66945;BME280;53853;51.982;5.928;2023-05-10T12:22:59;101075.41;;;19.77;60.36
66945;BME280;53853;51.982;5.928;2023-05-10T12:25:31;101073.09;;;19.81;60.50
66945;BME280;53853;51.982;5.928;2023-05-10T12:28:07;101074.78;;;19.82;61.49
66945;BME280;53853;51.982;5.928;2023-05-10T12:30:38;101076.03;;;19.86;60.60
66945;BME280;53853;51.982;5.928;2023-05-10T12:33:09;101079.38;;;20.01;62.78
66945;BME280;53853;51.982;5.928;2023-05-10T12:35:47;101080.41;;;19.94;57.07
66945;BME280;53853;51.982;5.928;2023-05-10T12:38:26;101078.56;;;20.01;59.46
66945;BME280;53853;51.982;5.928;2023-05-10T12:40:58;101078.56;;;20.07;60.07
66945;BME280;53853;51.982;5.928;2023-05-10T12:43:32;101080.22;;;20.15;61.04
66945;BME280;53853;51.982;5.928;2023-05-10T12:46:06;101084.81;;;20.15;59.17
66945;BME280;53853;51.982;5.928;2023-05-10T12:48:37;101077.72;;;20.07;59.73
66945;BME280;53853;51.982;5.928;2023-05-10T12:51:08;101082.53;;;20.12;61.02
66945;BME280;53853;51.982;5.928;2023-05-10T12:53:39;101079.41;;;20.15;59.93
66945;BME280;53853;51.982;5.928;2023-05-10T12:56:09;101084.81;;;20.15;58.13
66945;BME280;53853;51.982;5.928;2023-05-10T12:58:42;101088.78;;;20.25;59.20
66945;BME280;53853;51.982;5.928;2023-05-10T13:01:14;101088.56;;;20.34;58.95
66945;BME280;53853;51.982;5.928;2023-05-10T13:03:44;101077.72;;;20.40;58.21
66945;BME280;53853;51.982;5.928;2023-05-10T13:06:14;101088.16;;;20.37;58.30
66945;BME280;53853;51.982;5.928;2023-05-10T13:08:44;101082.75;;;20.37;56.99
66945;BME280;53853;51.982;5.928;2023-05-10T13:11:14;101088.34;;;20.35;56.08
66945;BME280;53853;51.982;5.928;2023-05-10T13:13:49;101099.81;;;20.37;57.08
66945;BME280;53853;51.982;5.928;2023-05-10T13:16:18;101096.28;;;20.37;56.23
66945;BME280;53853;51.982;5.928;2023-05-10T13:18:48;101097.91;;;20.38;58.63
66945;BME280;53853;51.982;5.928;2023-05-10T13:21:18;101092.31;;;20.46;58.32